sensor_id;sensor_type;location;lat;lon;timestamp;temperature;humidity
38380;DHT22;38377;47.418;18.882;2023-07-31T00:00:15;19.00;99.90
38380;DHT22;38377;47.418;18.882;2023-07-31T00:02:41;19.00;99.90
38380;DHT22;38377;47.418;18.882;2023-07-31T00:05:08;18.90;99.90
38380;DHT22;38377;47.418;18.882;2023-07-31T00:07:34;18.90;99.90
38380;DHT22;38377;47.418;18.882;2023-07-31T00:09:59;18.90;99.90
38380;DHT22;38377;47.418;18.882;2023-07-31T00:12:28;18.90;99.90
38380;DHT22;38377;47.418;18.882;2023-07-31T00:14:53;18.90;99.90
38380;DHT22;38377;47.418;18.882;2023-07-31T00:17:19;18.90;99.90
38380;DHT22;38377;47.418;18.882;2023-07-31T00:19:44;18.90;99.90
38380;DHT22;38377;47.418;18.882;2023-07-31T00:22:12;18.90;99.90
38380;DHT22;38377;47.418;18.882;2023-07-31T00:24:37;18.90;99.90
38380;DHT22;38377;47.418;18.882;2023-07-31T00:27:04;18.80;99.90
38380;DHT22;38377;47.418;18.882;2023-07-31T00:29:30;18.80;99.90
38380;DHT22;38377;47.418;18.882;2023-07-31T00:31:56;18.80;99.90
38380;DHT22;38377;47.418;18.882;2023-07-31T00:34:21;18.70;99.90
38380;DHT22;38377;47.418;18.882;2023-07-31T00:36:47;18.60;99.90
38380;DHT22;38377;47.418;18.882;2023-07-31T00:39:13;18.60;99.90
38380;DHT22;38377;47.418;18.882;2023-07-31T00:41:39;18.60;99.90
38380;DHT22;38377;47.418;18.882;2023-07-31T00:44:04;18.50;99.90
38380;DHT22;38377;47.418;18.882;2023-07-31T00:46:30;18.50;99.90
38380;DHT22;38377;47.418;18.882;2023-07-31T00:48:56;18.40;99.90
38380;DHT22;38377;47.418;18.882;2023-07-31T00:51:22;18.40;99.90
38380;DHT22;38377;47.418;18.882;2023-07-31T00:53:48;18.40;99.90
38380;DHT22;38377;47.418;18.882;2023-07-31T00:56:14;18.40;99.90
38380;DHT22;38377;47.418;18.882;2023-07-31T00:58:40;18.30;99.90
38380;DHT22;38377;47.418;18.882;2023-07-31T01:01:06;18.40;99.90
38380;DHT22;38377;47.418;18.882;2023-07-31T01:03:32;18.40;99.90
38380;DHT22;38377;47.418;18.882;2023-07-31T01:12:06;18.20;99.90
38380;DHT22;38377;47.418;18.882;2023-07-31T01:14:32;18.20;99.90
38380;DHT22;38377;47.418;18.882;2023-07-31T01:16:58;18.10;99.90
38380;DHT22;38377;47.418;18.882;2023-07-31T01:19:25;18.10;99.90
38380;DHT22;38377;47.418;18.882;2023-07-31T01:22:28;18.10;99.90
38380;DHT22;38377;47.418;18.882;2023-07-31T01:25:03;18.00;99.90
38380;DHT22;38377;47.418;18.882;2023-07-31T01:27:35;18.00;99.90
38380;DHT22;38377;47.418;18.882;2023-07-31T01:30:09;18.00;99.90
38380;DHT22;38377;47.418;18.882;2023-07-31T01:32:40;18.00;99.90
38380;DHT22;38377;47.418;18.882;2023-07-31T01:35:07;18.10;99.90
38380;DHT22;38377;47.418;18.882;2023-07-31T01:37:34;18.10;99.90
38380;DHT22;38377;47.418;18.882;2023-07-31T01:39:59;18.10;99.90
38380;DHT22;38377;47.418;18.882;2023-07-31T01:42:25;18.10;99.90
38380;DHT22;38377;47.418;18.882;2023-07-31T01:44:50;18.10;99.90
38380;DHT22;38377;47.418;18.882;2023-07-31T01:47:16;18.10;99.90
38380;DHT22;38377;47.418;18.882;2023-07-31T01:49:42;18.10;99.90
38380;DHT22;38377;47.418;18.882;2023-07-31T01:52:07;18.10;99.90
38380;DHT22;38377;47.418;18.882;2023-07-31T01:54:33;18.10;99.90
38380;DHT22;38377;47.418;18.882;2023-07-31T01:56:59;18.10;99.90
38380;DHT22;38377;47.418;18.882;2023-07-31T01:59:25;18.10;99.90
38380;DHT22;38377;47.418;18.882;2023-07-31T02:01:50;18.10;99.90
38380;DHT22;38377;47.418;18.882;2023-07-31T02:04:16;18.00;99.90
38380;DHT22;38377;47.418;18.882;2023-07-31T02:06:43;17.90;99.90
38380;DHT22;38377;47.418;18.882;2023-07-31T02:09:08;17.80;99.90
38380;DHT22;38377;47.418;18.882;2023-07-31T02:11:34;17.80;99.90
38380;DHT22;38377;47.418;18.882;2023-07-31T02:14:00;17.70;99.90
38380;DHT22;38377;47.418;18.882;2023-07-31T02:16:25;17.70;99.90
38380;DHT22;38377;47.418;18.882;2023-07-31T02:18:51;17.60;99.90
38380;DHT22;38377;47.418;18.882;2023-07-31T02:21:16;17.60;99.90
38380;DHT22;38377;47.418;18.882;2023-07-31T02:23:42;17.50;99.90
38380;DHT22;38377;47.418;18.882;2023-07-31T02:26:08;17.50;99.90
38380;DHT22;38377;47.418;18.882;2023-07-31T02:28:33;17.30;99.90
38380;DHT22;38377;47.418;18.882;2023-07-31T02:30:59;17.30;99.90
38380;DHT22;38377;47.418;18.882;2023-07-31T02:33:25;17.30;99.90
38380;DHT22;38377;47.418;18.882;2023-07-31T02:35:50;17.30;99.90
38380;DHT22;38377;47.418;18.882;2023-07-31T02:38:16;17.20;99.90
38380;DHT22;38377;47.418;18.882;2023-07-31T02:40:42;17.20;99.90
38380;DHT22;38377;47.418;18.882;2023-07-31T02:43:08;17.10;99.90
38380;DHT22;38377;47.418;18.882;2023-07-31T02:45:34;17.10;99.90
38380;DHT22;38377;47.418;18.882;2023-07-31T02:48:00;17.10;99.90
38380;DHT22;38377;47.418;18.882;2023-07-31T02:50:25;17.10;99.90
38380;DHT22;38377;47.418;18.882;2023-07-31T02:52:53;17.10;99.90
38380;DHT22;38377;47.418;18.882;2023-07-31T02:55:18;17.10;99.90
38380;DHT22;38377;47.418;18.882;2023-07-31T02:57:44;16.90;99.90
38380;DHT22;38377;47.418;18.882;2023-07-31T03:00:10;16.90;99.90
38380;DHT22;38377;47.418;18.882;2023-07-31T03:02:35;16.80;99.90
38380;DHT22;38377;47.418;18.882;2023-07-31T03:05:01;16.80;99.90
38380;DHT22;38377;47.418;18.882;2023-07-31T03:07:27;16.80;99.90
38380;DHT22;38377;47.418;18.882;2023-07-31T03:09:53;16.80;99.90
38380;DHT22;38377;47.418;18.882;2023-07-31T03:12:19;16.60;99.90
38380;DHT22;38377;47.418;18.882;2023-07-31T03:14:45;16.60;99.90
38380;DHT22;38377;47.418;18.882;2023-07-31T03:17:11;16.50;99.90
38380;DHT22;38377;47.418;18.882;2023-07-31T03:19:37;16.50;99.90
38380;DHT22;38377;47.418;18.882;2023-07-31T03:22:03;16.50;99.90
38380;DHT22;38377;47.418;18.882;2023-07-31T03:24:29;16.60;99.90
38380;DHT22;38377;47.418;18.882;2023-07-31T03:26:55;16.60;99.90
38380;DHT22;38377;47.418;18.882;2023-07-31T03:29:20;16.80;99.90
38380;DHT22;38377;47.418;18.882;2023-07-31T03:31:46;16.80;99.90
38380;DHT22;38377;47.418;18.882;2023-07-31T03:34:12;16.80;99.90
38380;DHT22;38377;47.418;18.882;2023-07-31T03:36:37;16.90;99.90
38380;DHT22;38377;47.418;18.882;2023-07-31T03:39:03;17.00;99.90
38380;DHT22;38377;47.418;18.882;2023-07-31T03:41:28;17.00;99.90
38380;DHT22;38377;47.418;18.882;2023-07-31T03:43:54;17.00;99.90
38380;DHT22;38377;47.418;18.882;2023-07-31T03:46:24;17.10;99.90
38380;DHT22;38377;47.418;18.882;2023-07-31T03:48:50;17.10;99.90
38380;DHT22;38377;47.418;18.882;2023-07-31T03:51:16;17.10;99.90
38380;DHT22;38377;47.418;18.882;2023-07-31T03:53:43;17.10;99.90
38380;DHT22;38377;47.418;18.882;2023-07-31T03:56:08;17.10;99.90
38380;DHT22;38377;47.418;18.882;2023-07-31T03:58:34;17.10;99.90
38380;DHT22;38377;47.418;18.882;2023-07-31T04:01:01;17.00;99.90
38380;DHT22;38377;47.418;18.882;2023-07-31T04:03:27;17.10;99.90
38380;DHT22;38377;47.418;18.882;2023-07-31T04:05:54;17.00;99.90
38380;DHT22;38377;47.418;18.882;2023-07-31T04:08:22;16.90;99.90
38380;DHT22;38377;47.418;18.882;2023-07-31T04:10:47;16.90;99.90
38380;DHT22;38377;47.418;18.882;2023-07-31T04:13:13;16.90;99.90
38380;DHT22;38377;47.418;18.882;2023-07-31T04:15:39;16.90;99.90
38380;DHT22;38377;47.418;18.882;2023-07-31T04:18:05;17.10;99.90
38380;DHT22;38377;47.418;18.882;2023-07-31T04:20:31;17.10;99.90
38380;DHT22;38377;47.418;18.882;2023-07-31T04:22:56;17.10;99.90
38380;DHT22;38377;47.418;18.882;2023-07-31T04:25:22;17.00;99.90
38380;DHT22;38377;47.418;18.882;2023-07-31T04:27:47;17.00;99.90
38380;DHT22;38377;47.418;18.882;2023-07-31T04:30:13;17.00;99.90
38380;DHT22;38377;47.418;18.882;2023-07-31T04:32:39;17.00;99.90
38380;DHT22;38377;47.418;18.882;2023-07-31T04:35:05;17.00;99.90
38380;DHT22;38377;47.418;18.882;2023-07-31T04:37:31;17.20;99.90
38380;DHT22;38377;47.418;18.882;2023-07-31T04:39:57;17.20;99.90
38380;DHT22;38377;47.418;18.882;2023-07-31T04:42:23;17.30;99.90
38380;DHT22;38377;47.418;18.882;2023-07-31T04:44:48;17.40;99.90
38380;DHT22;38377;47.418;18.882;2023-07-31T04:47:14;17.50;99.90
38380;DHT22;38377;47.418;18.882;2023-07-31T04:49:40;17.50;99.90
38380;DHT22;38377;47.418;18.882;2023-07-31T04:52:06;17.60;99.90
38380;DHT22;38377;47.418;18.882;2023-07-31T04:54:31;17.60;99.90
38380;DHT22;38377;47.418;18.882;2023-07-31T04:56:57;17.70;99.90
38380;DHT22;38377;47.418;18.882;2023-07-31T04:59:23;17.80;99.90
38380;DHT22;38377;47.418;18.882;2023-07-31T05:01:48;17.80;99.90
38380;DHT22;38377;47.418;18.882;2023-07-31T05:04:14;17.90;99.90
38380;DHT22;38377;47.418;18.882;2023-07-31T05:06:41;17.90;99.90
38380;DHT22;38377;47.418;18.882;2023-07-31T05:09:06;18.10;99.90
38380;DHT22;38377;47.418;18.882;2023-07-31T05:11:32;18.20;99.90
38380;DHT22;38377;47.418;18.882;2023-07-31T05:13:58;18.30;99.90
38380;DHT22;38377;47.418;18.882;2023-07-31T05:16:23;18.40;99.90
38380;DHT22;38377;47.418;18.882;2023-07-31T05:18:49;18.50;99.90
38380;DHT22;38377;47.418;18.882;2023-07-31T05:21:15;18.40;99.90
38380;DHT22;38377;47.418;18.882;2023-07-31T05:23:40;18.30;99.90
38380;DHT22;38377;47.418;18.882;2023-07-31T05:26:07;18.20;99.90
38380;DHT22;38377;47.418;18.882;2023-07-31T05:28:34;18.20;99.90
38380;DHT22;38377;47.418;18.882;2023-07-31T05:31:01;18.20;99.90
38380;DHT22;38377;47.418;18.882;2023-07-31T05:33:27;18.60;99.90
38380;DHT22;38377;47.418;18.882;2023-07-31T05:35:53;19.00;99.90
38380;DHT22;38377;47.418;18.882;2023-07-31T05:38:19;19.30;99.90
38380;DHT22;38377;47.418;18.882;2023-07-31T05:40:44;19.10;99.90
38380;DHT22;38377;47.418;18.882;2023-07-31T05:43:10;18.80;99.90
38380;DHT22;38377;47.418;18.882;2023-07-31T05:45:36;18.70;99.90
38380;DHT22;38377;47.418;18.882;2023-07-31T05:48:02;18.60;99.90
38380;DHT22;38377;47.418;18.882;2023-07-31T05:50:28;18.70;99.90
38380;DHT22;38377;47.418;18.882;2023-07-31T05:52:54;19.00;99.90
38380;DHT22;38377;47.418;18.882;2023-07-31T05:55:19;19.30;99.90
38380;DHT22;38377;47.418;18.882;2023-07-31T05:57:46;19.50;99.90
38380;DHT22;38377;47.418;18.882;2023-07-31T06:00:13;19.50;99.90
38380;DHT22;38377;47.418;18.882;2023-07-31T06:02:39;19.50;99.90
38380;DHT22;38377;47.418;18.882;2023-07-31T06:05:05;19.40;99.90
38380;DHT22;38377;47.418;18.882;2023-07-31T06:07:37;19.40;99.90
38380;DHT22;38377;47.418;18.882;2023-07-31T06:10:03;19.40;99.90
38380;DHT22;38377;47.418;18.882;2023-07-31T06:12:30;19.50;99.90
38380;DHT22;38377;47.418;18.882;2023-07-31T06:14:56;19.70;99.90
38380;DHT22;38377;47.418;18.882;2023-07-31T06:17:22;19.80;99.90
38380;DHT22;38377;47.418;18.882;2023-07-31T06:19:48;19.90;99.90
38380;DHT22;38377;47.418;18.882;2023-07-31T06:22:14;19.90;99.90
38380;DHT22;38377;47.418;18.882;2023-07-31T06:24:40;20.00;99.90
38380;DHT22;38377;47.418;18.882;2023-07-31T06:27:06;20.00;99.90
38380;DHT22;38377;47.418;18.882;2023-07-31T06:29:32;20.00;99.90
38380;DHT22;38377;47.418;18.882;2023-07-31T06:31:59;20.00;99.90
38380;DHT22;38377;47.418;18.882;2023-07-31T06:34:24;20.00;99.90
38380;DHT22;38377;47.418;18.882;2023-07-31T06:36:51;19.90;99.90
38380;DHT22;38377;47.418;18.882;2023-07-31T06:39:23;19.80;99.90
38380;DHT22;38377;47.418;18.882;2023-07-31T06:41:49;19.60;99.90
38380;DHT22;38377;47.418;18.882;2023-07-31T06:44:14;19.40;99.90
38380;DHT22;38377;47.418;18.882;2023-07-31T06:46:40;19.40;99.90
38380;DHT22;38377;47.418;18.882;2023-07-31T06:49:06;19.40;99.90
38380;DHT22;38377;47.418;18.882;2023-07-31T06:51:31;19.30;99.90
38380;DHT22;38377;47.418;18.882;2023-07-31T06:53:58;19.30;99.90
38380;DHT22;38377;47.418;18.882;2023-07-31T06:56:23;19.30;99.90
38380;DHT22;38377;47.418;18.882;2023-07-31T06:58:49;19.40;99.90
38380;DHT22;38377;47.418;18.882;2023-07-31T07:01:15;19.50;99.90
38380;DHT22;38377;47.418;18.882;2023-07-31T07:03:40;19.60;99.90
38380;DHT22;38377;47.418;18.882;2023-07-31T07:06:06;19.80;99.90
38380;DHT22;38377;47.418;18.882;2023-07-31T07:08:32;19.80;99.90
38380;DHT22;38377;47.418;18.882;2023-07-31T07:10:58;20.00;99.90
38380;DHT22;38377;47.418;18.882;2023-07-31T07:13:23;20.10;99.90
38380;DHT22;38377;47.418;18.882;2023-07-31T07:15:50;20.40;99.90
38380;DHT22;38377;47.418;18.882;2023-07-31T07:18:16;20.60;99.90
38380;DHT22;38377;47.418;18.882;2023-07-31T07:20:50;20.60;98.80
38380;DHT22;38377;47.418;18.882;2023-07-31T07:23:16;20.90;98.60
38380;DHT22;38377;47.418;18.882;2023-07-31T07:25:43;20.90;97.50
38380;DHT22;38377;47.418;18.882;2023-07-31T07:28:09;20.70;97.20
38380;DHT22;38377;47.418;18.882;2023-07-31T07:30:34;20.70;97.10
38380;DHT22;38377;47.418;18.882;2023-07-31T07:33:00;20.90;98.00
38380;DHT22;38377;47.418;18.882;2023-07-31T07:35:26;21.00;97.30
38380;DHT22;38377;47.418;18.882;2023-07-31T07:37:51;20.70;96.90
38380;DHT22;38377;47.418;18.882;2023-07-31T07:40:17;20.30;97.00
38380;DHT22;38377;47.418;18.882;2023-07-31T07:42:43;20.10;97.90
38380;DHT22;38377;47.418;18.882;2023-07-31T07:45:09;20.10;99.00
38380;DHT22;38377;47.418;18.882;2023-07-31T07:47:35;20.20;98.50
38380;DHT22;38377;47.418;18.882;2023-07-31T07:50:00;20.40;98.60
38380;DHT22;38377;47.418;18.882;2023-07-31T07:52:26;20.70;97.40
38380;DHT22;38377;47.418;18.882;2023-07-31T07:54:52;21.10;96.70
38380;DHT22;38377;47.418;18.882;2023-07-31T07:57:17;21.60;96.10
38380;DHT22;38377;47.418;18.882;2023-07-31T07:59:43;21.70;94.10
38380;DHT22;38377;47.418;18.882;2023-07-31T08:02:09;22.00;93.60
38380;DHT22;38377;47.418;18.882;2023-07-31T08:04:35;22.10;93.20
38380;DHT22;38377;47.418;18.882;2023-07-31T08:07:00;22.00;91.80
38380;DHT22;38377;47.418;18.882;2023-07-31T08:09:26;21.80;92.70
38380;DHT22;38377;47.418;18.882;2023-07-31T08:11:52;21.90;92.00
38380;DHT22;38377;47.418;18.882;2023-07-31T08:14:17;22.00;91.50
38380;DHT22;38377;47.418;18.882;2023-07-31T08:16:43;22.30;92.50
38380;DHT22;38377;47.418;18.882;2023-07-31T08:19:09;22.40;91.50
38380;DHT22;38377;47.418;18.882;2023-07-31T08:21:34;22.50;91.30
38380;DHT22;38377;47.418;18.882;2023-07-31T08:24:00;22.80;91.40
38380;DHT22;38377;47.418;18.882;2023-07-31T08:26:26;22.90;89.70
38380;DHT22;38377;47.418;18.882;2023-07-31T08:28:52;23.10;90.50
38380;DHT22;38377;47.418;18.882;2023-07-31T08:31:18;23.20;89.70
38380;DHT22;38377;47.418;18.882;2023-07-31T08:33:44;23.20;88.00
38380;DHT22;38377;47.418;18.882;2023-07-31T08:36:10;23.00;88.10
38380;DHT22;38377;47.418;18.882;2023-07-31T08:38:35;23.10;87.00
38380;DHT22;38377;47.418;18.882;2023-07-31T08:41:03;23.00;85.40
38380;DHT22;38377;47.418;18.882;2023-07-31T08:43:30;23.00;87.10
38380;DHT22;38377;47.418;18.882;2023-07-31T08:45:55;23.20;87.00
38380;DHT22;38377;47.418;18.882;2023-07-31T08:48:23;22.90;85.90
38380;DHT22;38377;47.418;18.882;2023-07-31T08:50:50;23.10;88.00
38380;DHT22;38377;47.418;18.882;2023-07-31T08:53:15;23.30;86.90
38380;DHT22;38377;47.418;18.882;2023-07-31T08:55:43;23.40;86.50
38380;DHT22;38377;47.418;18.882;2023-07-31T08:58:10;23.50;84.40
38380;DHT22;38377;47.418;18.882;2023-07-31T09:00:41;23.30;84.80
38380;DHT22;38377;47.418;18.882;2023-07-31T09:03:13;23.40;84.00
38380;DHT22;38377;47.418;18.882;2023-07-31T09:05:43;23.40;83.80
38380;DHT22;38377;47.418;18.882;2023-07-31T09:08:10;23.60;83.70
38380;DHT22;38377;47.418;18.882;2023-07-31T09:10:43;23.70;82.50
38380;DHT22;38377;47.418;18.882;2023-07-31T09:13:12;23.70;82.60
38380;DHT22;38377;47.418;18.882;2023-07-31T09:15:39;23.60;83.40
38380;DHT22;38377;47.418;18.882;2023-07-31T09:18:07;23.40;80.20
38380;DHT22;38377;47.418;18.882;2023-07-31T09:20:33;23.20;81.40
38380;DHT22;38377;47.418;18.882;2023-07-31T09:23:10;23.30;81.10
38380;DHT22;38377;47.418;18.882;2023-07-31T09:25:37;23.30;81.50
38380;DHT22;38377;47.418;18.882;2023-07-31T09:28:09;23.50;81.70
38380;DHT22;38377;47.418;18.882;2023-07-31T09:30:49;23.60;83.30
38380;DHT22;38377;47.418;18.882;2023-07-31T09:33:16;23.70;84.30
38380;DHT22;38377;47.418;18.882;2023-07-31T09:35:42;24.00;82.80
38380;DHT22;38377;47.418;18.882;2023-07-31T09:38:12;24.20;81.80
38380;DHT22;38377;47.418;18.882;2023-07-31T09:40:40;24.20;77.70
38380;DHT22;38377;47.418;18.882;2023-07-31T09:43:13;24.10;80.20
38380;DHT22;38377;47.418;18.882;2023-07-31T09:45:43;23.90;81.00
38380;DHT22;38377;47.418;18.882;2023-07-31T09:48:10;24.00;81.20
38380;DHT22;38377;47.418;18.882;2023-07-31T09:50:40;24.00;80.30
38380;DHT22;38377;47.418;18.882;2023-07-31T09:53:07;24.20;75.60
38380;DHT22;38377;47.418;18.882;2023-07-31T09:55:33;24.00;76.80
38380;DHT22;38377;47.418;18.882;2023-07-31T09:57:59;24.00;78.10
38380;DHT22;38377;47.418;18.882;2023-07-31T10:00:29;24.10;79.10
38380;DHT22;38377;47.418;18.882;2023-07-31T10:02:59;24.10;78.50
38380;DHT22;38377;47.418;18.882;2023-07-31T10:05:30;24.60;77.60
38380;DHT22;38377;47.418;18.882;2023-07-31T10:07:57;24.70;74.90
38380;DHT22;38377;47.418;18.882;2023-07-31T10:10:23;24.80;75.40
38380;DHT22;38377;47.418;18.882;2023-07-31T10:12:52;24.70;73.60
38380;DHT22;38377;47.418;18.882;2023-07-31T10:15:19;24.70;74.00
38380;DHT22;38377;47.418;18.882;2023-07-31T10:17:48;24.70;73.60
38380;DHT22;38377;47.418;18.882;2023-07-31T10:20:15;24.40;74.90
38380;DHT22;38377;47.418;18.882;2023-07-31T10:22:44;24.60;74.50
38380;DHT22;38377;47.418;18.882;2023-07-31T10:25:14;24.70;75.40
38380;DHT22;38377;47.418;18.882;2023-07-31T10:27:40;25.00;75.50
38380;DHT22;38377;47.418;18.882;2023-07-31T10:30:08;25.30;76.10
38380;DHT22;38377;47.418;18.882;2023-07-31T10:32:35;25.30;73.80
38380;DHT22;38377;47.418;18.882;2023-07-31T10:35:03;25.50;71.70
38380;DHT22;38377;47.418;18.882;2023-07-31T10:37:35;25.30;73.80
38380;DHT22;38377;47.418;18.882;2023-07-31T10:40:05;25.30;73.20
38380;DHT22;38377;47.418;18.882;2023-07-31T10:42:36;25.00;71.90
38380;DHT22;38377;47.418;18.882;2023-07-31T10:45:06;24.80;72.60
38380;DHT22;38377;47.418;18.882;2023-07-31T10:47:36;24.60;72.80
38380;DHT22;38377;47.418;18.882;2023-07-31T10:50:20;24.60;72.00
38380;DHT22;38377;47.418;18.882;2023-07-31T10:52:47;24.60;72.60
38380;DHT22;38377;47.418;18.882;2023-07-31T10:55:42;24.60;71.40
38380;DHT22;38377;47.418;18.882;2023-07-31T10:58:14;24.60;71.90
38380;DHT22;38377;47.418;18.882;2023-07-31T11:00:44;24.90;72.50
38380;DHT22;38377;47.418;18.882;2023-07-31T11:03:18;25.00;70.30
38380;DHT22;38377;47.418;18.882;2023-07-31T11:05:53;24.80;71.50
38380;DHT22;38377;47.418;18.882;2023-07-31T11:13:26;25.20;69.90
38380;DHT22;38377;47.418;18.882;2023-07-31T11:15:52;25.20;68.00
38380;DHT22;38377;47.418;18.882;2023-07-31T11:18:18;25.20;67.90
38380;DHT22;38377;47.418;18.882;2023-07-31T11:20:44;25.30;68.80
38380;DHT22;38377;47.418;18.882;2023-07-31T11:23:10;25.40;68.00
38380;DHT22;38377;47.418;18.882;2023-07-31T11:25:39;25.30;66.90
38380;DHT22;38377;47.418;18.882;2023-07-31T11:28:13;25.10;66.90
38380;DHT22;38377;47.418;18.882;2023-07-31T11:30:41;25.20;67.20
38380;DHT22;38377;47.418;18.882;2023-07-31T11:33:08;25.40;66.70
38380;DHT22;38377;47.418;18.882;2023-07-31T11:35:48;25.60;68.00
38380;DHT22;38377;47.418;18.882;2023-07-31T11:41:02;25.60;65.90
38380;DHT22;38377;47.418;18.882;2023-07-31T11:43:29;25.40;68.70
38380;DHT22;38377;47.418;18.882;2023-07-31T11:45:56;25.60;67.00
38380;DHT22;38377;47.418;18.882;2023-07-31T11:50:53;25.60;66.20
38380;DHT22;38377;47.418;18.882;2023-07-31T11:56:00;25.50;66.40
38380;DHT22;38377;47.418;18.882;2023-07-31T11:58:28;25.70;66.90
38380;DHT22;38377;47.418;18.882;2023-07-31T12:00:55;25.90;65.40
38380;DHT22;38377;47.418;18.882;2023-07-31T12:03:21;25.80;65.30
38380;DHT22;38377;47.418;18.882;2023-07-31T12:05:48;25.60;66.90
38380;DHT22;38377;47.418;18.882;2023-07-31T12:08:14;25.70;67.60
38380;DHT22;38377;47.418;18.882;2023-07-31T12:10:39;25.80;66.30
38380;DHT22;38377;47.418;18.882;2023-07-31T12:13:11;26.10;66.10
38380;DHT22;38377;47.418;18.882;2023-07-31T12:15:43;26.30;65.00
38380;DHT22;38377;47.418;18.882;2023-07-31T12:18:10;26.30;64.90
38380;DHT22;38377;47.418;18.882;2023-07-31T12:20:40;26.30;66.10
38380;DHT22;38377;47.418;18.882;2023-07-31T12:23:07;26.30;65.60
38380;DHT22;38377;47.418;18.882;2023-07-31T12:25:33;26.10;64.10
38380;DHT22;38377;47.418;18.882;2023-07-31T12:28:06;26.10;64.20
38380;DHT22;38377;47.418;18.882;2023-07-31T12:30:34;26.00;65.40
38380;DHT22;38377;47.418;18.882;2023-07-31T12:33:05;26.20;66.00
38380;DHT22;38377;47.418;18.882;2023-07-31T12:35:39;26.10;63.70
38380;DHT22;38377;47.418;18.882;2023-07-31T12:38:06;26.10;65.30
38380;DHT22;38377;47.418;18.882;2023-07-31T12:40:32;26.20;65.90
38380;DHT22;38377;47.418;18.882;2023-07-31T12:43:00;26.40;64.90
38380;DHT22;38377;47.418;18.882;2023-07-31T12:45:26;26.30;64.50
38380;DHT22;38377;47.418;18.882;2023-07-31T12:47:52;26.20;64.30
38380;DHT22;38377;47.418;18.882;2023-07-31T12:50:18;26.10;64.70
38380;DHT22;38377;47.418;18.882;2023-07-31T12:52:43;26.10;64.90
38380;DHT22;38377;47.418;18.882;2023-07-31T12:55:09;26.10;63.40
38380;DHT22;38377;47.418;18.882;2023-07-31T12:57:36;25.90;66.10
38380;DHT22;38377;47.418;18.882;2023-07-31T13:00:03;25.60;65.20
38380;DHT22;38377;47.418;18.882;2023-07-31T13:02:29;25.50;67.80
38380;DHT22;38377;47.418;18.882;2023-07-31T13:04:54;25.80;63.80
38380;DHT22;38377;47.418;18.882;2023-07-31T13:07:22;25.80;64.50
38380;DHT22;38377;47.418;18.882;2023-07-31T13:09:48;25.60;63.10
38380;DHT22;38377;47.418;18.882;2023-07-31T13:12:13;25.70;65.30
38380;DHT22;38377;47.418;18.882;2023-07-31T13:14:39;26.00;66.50
38380;DHT22;38377;47.418;18.882;2023-07-31T13:17:05;26.20;63.90
38380;DHT22;38377;47.418;18.882;2023-07-31T13:19:30;26.20;65.40
38380;DHT22;38377;47.418;18.882;2023-07-31T13:21:56;26.40;65.90
38380;DHT22;38377;47.418;18.882;2023-07-31T13:24:22;26.70;63.50
38380;DHT22;38377;47.418;18.882;2023-07-31T13:26:47;26.70;63.10
38380;DHT22;38377;47.418;18.882;2023-07-31T13:29:13;26.40;63.10
38380;DHT22;38377;47.418;18.882;2023-07-31T13:31:39;26.00;64.00
38380;DHT22;38377;47.418;18.882;2023-07-31T13:34:05;26.10;65.60
38380;DHT22;38377;47.418;18.882;2023-07-31T13:36:30;26.30;65.10
38380;DHT22;38377;47.418;18.882;2023-07-31T13:38:56;26.10;64.20
38380;DHT22;38377;47.418;18.882;2023-07-31T13:41:21;26.00;65.70
38380;DHT22;38377;47.418;18.882;2023-07-31T13:43:47;26.00;63.50
38380;DHT22;38377;47.418;18.882;2023-07-31T13:46:13;25.90;63.10
38380;DHT22;38377;47.418;18.882;2023-07-31T13:48:38;25.80;63.60
38380;DHT22;38377;47.418;18.882;2023-07-31T13:51:04;25.80;63.70
38380;DHT22;38377;47.418;18.882;2023-07-31T13:53:30;26.00;63.70
38380;DHT22;38377;47.418;18.882;2023-07-31T13:55:56;26.00;64.00
38380;DHT22;38377;47.418;18.882;2023-07-31T13:58:21;26.10;63.90
38380;DHT22;38377;47.418;18.882;2023-07-31T14:00:47;26.00;63.80
38380;DHT22;38377;47.418;18.882;2023-07-31T14:03:12;25.80;63.50
38380;DHT22;38377;47.418;18.882;2023-07-31T14:05:38;25.70;64.20
38380;DHT22;38377;47.418;18.882;2023-07-31T14:08:04;25.50;65.20
38380;DHT22;38377;47.418;18.882;2023-07-31T14:10:29;25.20;64.60
38380;DHT22;38377;47.418;18.882;2023-07-31T14:12:55;24.90;66.50
38380;DHT22;38377;47.418;18.882;2023-07-31T14:15:20;24.80;66.10
38380;DHT22;38377;47.418;18.882;2023-07-31T14:17:47;24.70;65.50
38380;DHT22;38377;47.418;18.882;2023-07-31T14:20:13;24.60;65.30
38380;DHT22;38377;47.418;18.882;2023-07-31T14:22:39;24.50;66.80
38380;DHT22;38377;47.418;18.882;2023-07-31T14:25:05;24.50;67.20
38380;DHT22;38377;47.418;18.882;2023-07-31T14:27:31;24.60;66.60
38380;DHT22;38377;47.418;18.882;2023-07-31T14:29:56;24.90;66.40
38380;DHT22;38377;47.418;18.882;2023-07-31T14:32:22;25.20;66.50
38380;DHT22;38377;47.418;18.882;2023-07-31T14:34:51;25.40;66.10
38380;DHT22;38377;47.418;18.882;2023-07-31T14:37:16;25.70;66.60
38380;DHT22;38377;47.418;18.882;2023-07-31T14:39:42;26.10;65.50
38380;DHT22;38377;47.418;18.882;2023-07-31T14:42:09;26.10;63.20
38380;DHT22;38377;47.418;18.882;2023-07-31T14:44:34;25.80;63.40
38380;DHT22;38377;47.418;18.882;2023-07-31T14:47:00;25.70;63.90
38380;DHT22;38377;47.418;18.882;2023-07-31T14:49:26;25.60;64.40
38380;DHT22;38377;47.418;18.882;2023-07-31T14:51:54;25.80;63.60
38380;DHT22;38377;47.418;18.882;2023-07-31T14:54:19;25.80;64.60
38380;DHT22;38377;47.418;18.882;2023-07-31T14:56:45;25.80;63.90
38380;DHT22;38377;47.418;18.882;2023-07-31T14:59:11;26.00;67.00
38380;DHT22;38377;47.418;18.882;2023-07-31T15:01:37;26.00;63.10
38380;DHT22;38377;47.418;18.882;2023-07-31T15:04:03;25.90;64.40
38380;DHT22;38377;47.418;18.882;2023-07-31T15:06:29;25.80;64.30
38380;DHT22;38377;47.418;18.882;2023-07-31T15:08:54;25.60;64.30
38380;DHT22;38377;47.418;18.882;2023-07-31T15:11:20;25.50;64.20
38380;DHT22;38377;47.418;18.882;2023-07-31T15:13:46;25.60;65.00
38380;DHT22;38377;47.418;18.882;2023-07-31T15:16:12;25.60;65.70
38380;DHT22;38377;47.418;18.882;2023-07-31T15:18:38;25.40;65.70
38380;DHT22;38377;47.418;18.882;2023-07-31T15:21:04;25.10;65.90
38380;DHT22;38377;47.418;18.882;2023-07-31T15:23:32;24.90;66.50
38380;DHT22;38377;47.418;18.882;2023-07-31T15:25:57;24.80;66.60
38380;DHT22;38377;47.418;18.882;2023-07-31T15:28:23;24.50;66.50
38380;DHT22;38377;47.418;18.882;2023-07-31T15:30:48;24.40;67.10